Time;durP1;ratioP1;P1;durP2;ratioP2;P2;SDS_P1;SDS_P2;PMS_P1;PMS_P2;Temp;Humidity;BMP_temperature;BMP_pressure;BME280_temperature;BME280_humidity;BME280_pressure;Samples;Min_cycle;Max_cycle;Signal;HPM_P1;HPM_P2
2021/11/03 00:02:14;;;;;;;34.83;14.35;;;;;;;;;;5013051;28;20084;-75
2021/11/03 00:04:40;;;;;;;30.45;13.63;;;;;;;;;;5005651;28;20089;-75
2021/11/03 00:07:09;;;;;;;34.55;15.32;;;;;;;;;;5014555;28;20105;-75
2021/11/03 00:09:35;;;;;;;45.72;15.27;;;;;;;;;;5006612;28;20037;-75
2021/11/03 00:12:01;;;;;;;41.10;15.07;;;;;;;;;;5014220;28;20449;-75
2021/11/03 00:14:27;;;;;;;34.00;13.25;;;;;;;;;;5014960;28;20030;-75
2021/11/03 00:16:53;;;;;;;36.92;14.25;;;;;;;;;;5014502;28;20053;-75
2021/11/03 00:19:19;;;;;;;39.03;14.75;;;;;;;;;;5011626;28;20463;-75
2021/11/03 00:21:44;;;;;;;45.20;16.35;;;;;;;;;;5002712;28;20057;-75
2021/11/03 00:24:10;;;;;;;32.58;14.13;;;;;;;;;;5006145;28;20015;-75
2021/11/03 00:26:36;;;;;;;34.20;16.90;;;;;;;;;;5006987;28;20034;-76
2021/11/03 00:29:02;;;;;;;41.47;19.05;;;;;;;;;;5007575;28;20026;-76
2021/11/03 00:31:28;;;;;;;38.10;19.08;;;;;;;;;;5011561;28;20022;-74
2021/11/03 00:33:55;;;;;;;37.78;18.70;;;;;;;;;;4999274;28;20442;-75
2021/11/03 00:36:21;;;;;;;31.92;17.60;;;;;;;;;;5011339;28;20037;-75
2021/11/03 00:38:46;;;;;;;34.88;18.40;;;;;;;;;;5006982;28;20561;-75
2021/11/03 00:41:12;;;;;;;35.40;16.85;;;;;;;;;;5007020;28;20023;-75
2021/11/03 00:43:38;;;;;;;36.03;18.92;;;;;;;;;;4998636;28;20491;-75
2021/11/03 00:46:04;;;;;;;37.28;17.40;;;;;;;;;;5014680;28;20415;-75
2021/11/03 00:48:31;;;;;;;34.20;18.83;;;;;;;;;;4999585;28;20033;-75
2021/11/03 00:50:57;;;;;;;42.30;19.58;;;;;;;;;;5008760;28;20022;-75
2021/11/03 00:53:23;;;;;;;36.45;17.95;;;;;;;;;;5002092;28;20029;-75
2021/11/03 00:55:49;;;;;;;35.63;17.92;;;;;;;;;;5012071;28;20051;-75
2021/11/03 00:58:15;;;;;;;36.08;18.30;;;;;;;;;;5003807;28;20514;-75
2021/11/03 01:00:41;;;;;;;37.45;20.77;;;;;;;;;;5015087;28;20462;-75
2021/11/03 01:03:07;;;;;;;39.45;20.15;;;;;;;;;;5008898;28;20037;-75
2021/11/03 01:05:37;;;;;;;42.35;19.90;;;;;;;;;;5004565;28;20395;-75
2021/11/03 01:08:04;;;;;;;42.22;20.35;;;;;;;;;;5010622;28;20018;-75
2021/11/03 01:10:30;;;;;;;36.58;20.17;;;;;;;;;;5003852;28;20361;-75
2021/11/03 01:12:56;;;;;;;35.63;20.20;;;;;;;;;;5000980;28;20096;-75
2021/11/03 01:15:23;;;;;;;40.97;21.00;;;;;;;;;;4999421;28;20066;-75
2021/11/03 01:17:49;;;;;;;43.47;21.35;;;;;;;;;;5009775;28;20034;-75
2021/11/03 01:20:15;;;;;;;45.33;22.25;;;;;;;;;;5010130;28;20029;-75
2021/11/03 01:22:41;;;;;;;43.10;21.33;;;;;;;;;;5009057;28;20025;-75
2021/11/03 01:25:08;;;;;;;46.95;21.75;;;;;;;;;;5002402;28;20026;-75
2021/11/03 01:27:34;;;;;;;45.20;22.75;;;;;;;;;;5007910;28;20026;-75
2021/11/03 01:30:00;;;;;;;43.00;21.08;;;;;;;;;;5009240;28;20041;-76
2021/11/03 01:32:26;;;;;;;42.80;19.92;;;;;;;;;;5006623;28;20097;-76
2021/11/03 01:34:52;;;;;;;35.33;17.33;;;;;;;;;;5002571;28;20128;-76
2021/11/03 01:37:18;;;;;;;33.92;15.95;;;;;;;;;;5005933;28;20066;-76
2021/11/03 01:39:44;;;;;;;30.42;15.88;;;;;;;;;;5001869;28;20042;-76
2021/11/03 01:42:10;;;;;;;27.20;14.38;;;;;;;;;;5002217;28;20034;-76
2021/11/03 01:44:36;;;;;;;26.13;14.68;;;;;;;;;;5000853;28;20022;-76
2021/11/03 01:47:21;;;;;;;28.75;14.57;;;;;;;;;;5010360;28;20034;-76
2021/11/03 01:49:47;;;;;;;29.67;14.38;;;;;;;;;;5000122;28;20479;-76
2021/11/03 01:52:14;;;;;;;24.30;13.48;;;;;;;;;;5010380;28;20033;-76
2021/11/03 01:54:43;;;;;;;24.63;12.05;;;;;;;;;;5011754;28;20032;-76
2021/11/03 01:57:13;;;;;;;24.50;12.88;;;;;;;;;;5009460;28;20037;-76
2021/11/03 01:59:43;;;;;;;25.55;13.65;;;;;;;;;;5009361;28;20530;-76
2021/11/03 02:02:10;;;;;;;21.85;12.32;;;;;;;;;;5015214;28;20387;-76
2021/11/03 02:04:36;;;;;;;23.92;12.32;;;;;;;;;;5003212;28;20027;-76
2021/11/03 02:07:04;;;;;;;25.30;13.40;;;;;;;;;;5011569;28;20025;-76
2021/11/03 02:09:30;;;;;;;21.23;12.23;;;;;;;;;;5002831;28;20033;-76
2021/11/03 02:11:56;;;;;;;23.65;12.60;;;;;;;;;;5000341;28;20034;-76
2021/11/03 02:14:22;;;;;;;24.33;12.35;;;;;;;;;;5003948;28;20039;-76
2021/11/03 02:16:49;;;;;;;21.98;11.73;;;;;;;;;;5012712;28;20282;-76
2021/11/03 02:19:19;;;;;;;27.98;14.00;;;;;;;;;;5009619;28;20025;-76
2021/11/03 02:21:45;;;;;;;;;;;;;;;;;;5010324;28;20372;-76
2021/11/03 02:24:17;;;;;;;23.80;12.27;;;;;;;;;;5008068;28;19960;-75
2021/11/03 02:26:44;;;;;;;27.48;13.07;;;;;;;;;;5004724;28;20030;-76
2021/11/03 02:29:11;;;;;;;28.42;14.77;;;;;;;;;;4999208;28;20037;-76
2021/11/03 02:31:42;;;;;;;22.23;12.75;;;;;;;;;;5009877;28;20380;-76
2021/11/03 02:34:09;;;;;;;27.20;13.15;;;;;;;;;;5005250;28;20026;-76
2021/11/03 02:36:35;;;;;;;29.90;13.57;;;;;;;;;;5003615;28;20029;-76
2021/11/03 02:39:05;;;;;;;21.30;11.85;;;;;;;;;;5009647;28;20026;-76
2021/11/03 02:41:33;;;;;;;27.88;14.55;;;;;;;;;;5007192;28;20033;-76
2021/11/03 02:44:09;;;;;;;28.42;13.60;;;;;;;;;;5009549;28;20030;-75
2021/11/03 02:46:35;;;;;;;24.88;12.75;;;;;;;;;;5000789;28;20026;-76
2021/11/03 02:49:01;;;;;;;22.98;13.65;;;;;;;;;;5000110;28;20370;-75
2021/11/03 02:51:35;;;;;;;23.05;12.48;;;;;;;;;;5010118;28;20483;-76
2021/11/03 02:54:04;;;;;;;23.23;11.27;;;;;;;;;;5012944;28;20030;-76
2021/11/03 02:56:31;;;;;;;26.10;12.88;;;;;;;;;;5011763;28;20100;-76
2021/11/03 02:58:57;;;;;;;25.92;13.13;;;;;;;;;;5010338;28;20044;-75
2021/11/03 03:01:31;;;;;;;23.85;11.88;;;;;;;;;;5011988;28;20041;-76
2021/11/03 03:03:57;;;;;;;22.70;11.85;;;;;;;;;;5010747;28;20033;-76
2021/11/03 03:06:24;;;;;;;26.02;13.13;;;;;;;;;;5008446;28;20027;-75
2021/11/03 03:08:50;;;;;;;23.35;11.98;;;;;;;;;;5006607;28;20314;-76
2021/11/03 03:11:16;;;;;;;28.88;13.27;;;;;;;;;;4999885;28;20089;-76
2021/11/03 03:13:42;;;;;;;26.02;13.30;;;;;;;;;;5005822;28;20029;-76
2021/11/03 03:16:08;;;;;;;25.73;13.38;;;;;;;;;;5017511;28;20096;-75
2021/11/03 03:18:35;;;;;;;21.48;11.82;;;;;;;;;;5019118;28;20464;-76
2021/11/03 03:21:00;;;;;;;53.17;14.93;;;;;;;;;;5008228;28;20460;-76
2021/11/03 03:23:26;;;;;;;33.75;13.95;;;;;;;;;;5007032;28;20030;-76
2021/11/03 03:25:53;;;;;;;25.90;12.85;;;;;;;;;;5003587;28;22439;-76
2021/11/03 03:28:19;;;;;;;25.23;13.05;;;;;;;;;;5008351;28;20076;-76
2021/11/03 03:30:45;;;;;;;25.60;13.10;;;;;;;;;;5001731;28;20018;-76
2021/11/03 03:33:11;;;;;;;24.30;12.57;;;;;;;;;;5003527;28;20022;-76
2021/11/03 03:35:37;;;;;;;23.95;13.18;;;;;;;;;;5006725;28;20104;-76
2021/11/03 03:38:04;;;;;;;31.65;14.00;;;;;;;;;;5010917;28;20105;-76
2021/11/03 03:40:30;;;;;;;33.30;13.80;;;;;;;;;;5012576;28;20034;-76
2021/11/03 03:42:56;;;;;;;29.05;13.82;;;;;;;;;;5012024;28;20156;-76
2021/11/03 03:45:22;;;;;;;74.35;15.73;;;;;;;;;;5004812;28;20176;-75
2021/11/03 03:47:48;;;;;;;49.97;13.80;;;;;;;;;;5001844;28;20026;-76
2021/11/03 03:50:14;;;;;;;63.53;15.77;;;;;;;;;;5015401;28;20038;-76
2021/11/03 03:52:40;;;;;;;29.60;12.40;;;;;;;;;;5004687;28;20034;-76
2021/11/03 03:55:07;;;;;;;40.42;12.50;;;;;;;;;;5004643;28;20033;-76
2021/11/03 03:57:33;;;;;;;25.35;11.73;;;;;;;;;;5008826;28;20061;-76
2021/11/03 03:59:59;;;;;;;37.33;11.75;;;;;;;;;;5008783;28;20497;-76
2021/11/03 04:02:25;;;;;;;19.13;11.00;;;;;;;;;;5000423;28;20026;-75
2021/11/03 04:04:51;;;;;;;82.22;16.88;;;;;;;;;;5010433;28;20030;-75
2021/11/03 04:07:17;;;;;;;22.80;12.48;;;;;;;;;;5007807;28;20421;-75
2021/11/03 04:09:42;;;;;;;25.42;11.88;;;;;;;;;;5011669;28;20053;-75
2021/11/03 04:12:08;;;;;;;20.15;12.95;;;;;;;;;;5000341;28;20022;-75
2021/11/03 04:14:34;;;;;;;32.72;13.48;;;;;;;;;;5009342;28;20483;-75
2021/11/03 04:17:00;;;;;;;22.75;12.50;;;;;;;;;;5011719;28;20117;-75
2021/11/03 04:19:26;;;;;;;36.05;14.10;;;;;;;;;;5009660;28;20053;-75
2021/11/03 04:21:52;;;;;;;24.13;12.50;;;;;;;;;;5011617;28;20069;-75
2021/11/03 04:24:18;;;;;;;24.15;13.75;;;;;;;;;;5009886;28;20032;-75
2021/11/03 04:26:47;;;;;;;38.60;12.75;;;;;;;;;;5009444;28;20022;-75
2021/11/03 04:29:13;;;;;;;59.50;14.55;;;;;;;;;;4998336;28;20026;-75
2021/11/03 04:31:39;;;;;;;67.97;14.07;;;;;;;;;;5003283;28;20113;-75
2021/11/03 04:34:05;;;;;;;51.53;12.98;;;;;;;;;;5011657;28;20038;-75
2021/11/03 04:36:32;;;;;;;28.05;12.38;;;;;;;;;;5000547;28;20117;-75
2021/11/03 04:38:59;;;;;;;24.08;11.70;;;;;;;;;;5011415;28;20108;-75
2021/11/03 04:41:25;;;;;;;25.67;12.65;;;;;;;;;;5010021;28;20026;-75
2021/11/03 04:43:51;;;;;;;27.45;14.40;;;;;;;;;;5001744;28;20038;-75
2021/11/03 04:46:18;;;;;;;24.90;13.35;;;;;;;;;;5010764;28;20522;-76
2021/11/03 04:48:45;;;;;;;30.75;14.95;;;;;;;;;;5001808;28;20392;-75
2021/11/03 04:51:11;;;;;;;33.25;14.30;;;;;;;;;;5006360;28;20022;-75
2021/11/03 04:53:37;;;;;;;47.20;16.73;;;;;;;;;;5011026;28;20052;-76
2021/11/03 04:56:04;;;;;;;39.13;14.90;;;;;;;;;;5005285;28;20034;-76
2021/11/03 04:58:31;;;;;;;47.20;16.23;;;;;;;;;;5011313;28;20030;-75
2021/11/03 05:00:57;;;;;;;60.60;17.67;;;;;;;;;;5002821;28;20133;-75
2021/11/03 05:03:23;;;;;;;62.38;16.25;;;;;;;;;;5001972;28;20483;-75
2021/11/03 05:05:50;;;;;;;56.85;17.10;;;;;;;;;;5005072;28;20049;-75
2021/11/03 05:08:17;;;;;;;69.20;16.60;;;;;;;;;;4998747;28;20045;-75
2021/11/03 05:10:43;;;;;;;64.68;17.52;;;;;;;;;;5006625;28;20029;-75
2021/11/03 05:13:09;;;;;;;48.25;16.13;;;;;;;;;;5011463;28;20105;-75
2021/11/03 05:15:35;;;;;;;73.10;19.52;;;;;;;;;;5001206;28;20052;-75
2021/11/03 05:18:02;;;;;;;56.85;19.48;;;;;;;;;;5009406;28;20033;-75
2021/11/03 05:20:28;;;;;;;51.10;19.00;;;;;;;;;;5008986;28;20463;-75
2021/11/03 05:22:54;;;;;;;51.10;21.48;;;;;;;;;;5009110;28;20072;-75
2021/11/03 05:25:23;;;;;;;49.88;21.40;;;;;;;;;;5004386;28;20027;-75
2021/11/03 05:27:49;;;;;;;49.20;21.67;;;;;;;;;;5008784;28;20333;-75
2021/11/03 05:30:15;;;;;;;59.30;24.60;;;;;;;;;;5008671;28;20018;-75
2021/11/03 05:32:41;;;;;;;62.55;22.63;;;;;;;;;;5010298;28;20044;-75
2021/11/03 05:35:08;;;;;;;68.68;25.25;;;;;;;;;;5017529;28;20029;-75
2021/11/03 05:37:34;;;;;;;73.78;25.55;;;;;;;;;;5010095;28;20034;-75
2021/11/03 05:40:00;;;;;;;69.63;22.20;;;;;;;;;;5009041;28;20029;-75
2021/11/03 05:42:26;;;;;;;105.45;23.95;;;;;;;;;;5002002;28;20033;-75
2021/11/03 05:44:51;;;;;;;121.53;24.77;;;;;;;;;;5023063;28;20033;-75
2021/11/03 05:47:24;;;;;;;80.97;22.45;;;;;;;;;;5005929;28;20027;-75
2021/11/03 05:49:51;;;;;;;81.13;21.00;;;;;;;;;;5007914;28;20034;-75
2021/11/03 05:52:17;;;;;;;83.85;21.58;;;;;;;;;;5009907;28;20026;-75
2021/11/03 05:54:43;;;;;;;64.03;19.33;;;;;;;;;;5001977;28;20030;-75
2021/11/03 05:57:13;;;;;;;83.45;20.10;;;;;;;;;;5008708;28;20033;-76
2021/11/03 05:59:39;;;;;;;82.80;19.55;;;;;;;;;;5007606;28;20041;-75
2021/11/03 06:02:05;;;;;;;53.30;16.40;;;;;;;;;;5010252;28;20399;-75
2021/11/03 06:04:31;;;;;;;58.85;18.13;;;;;;;;;;5009792;28;20029;-75
2021/11/03 06:06:57;;;;;;;109.43;19.92;;;;;;;;;;5010140;28;20034;-75
2021/11/03 06:09:23;;;;;;;40.38;15.95;;;;;;;;;;5007444;28;20037;-75
2021/11/03 06:11:50;;;;;;;35.60;15.13;;;;;;;;;;4997503;28;20053;-75
2021/11/03 06:14:16;;;;;;;56.20;16.42;;;;;;;;;;5008316;28;20084;-75
2021/11/03 06:16:42;;;;;;;41.53;15.27;;;;;;;;;;5010537;28;20041;-75
2021/11/03 06:19:08;;;;;;;38.60;15.18;;;;;;;;;;5009942;28;20022;-75
2021/11/03 06:21:34;;;;;;;38.25;15.75;;;;;;;;;;4997194;28;20105;-74
2021/11/03 06:24:01;;;;;;;35.28;14.80;;;;;;;;;;5005061;28;20531;-74
2021/11/03 06:26:26;;;;;;;46.03;14.48;;;;;;;;;;5010067;28;20029;-74
2021/11/03 06:28:53;;;;;;;37.28;13.80;;;;;;;;;;5013782;28;20109;-75
2021/11/03 06:31:19;;;;;;;67.72;19.10;;;;;;;;;;5011933;28;20061;-74
2021/11/03 06:33:44;;;;;;;42.45;14.98;;;;;;;;;;5008517;28;20146;-74
2021/11/03 06:36:12;;;;;;;40.42;16.63;;;;;;;;;;5006866;28;20026;-74
2021/11/03 06:38:38;;;;;;;37.85;15.30;;;;;;;;;;5009356;28;20462;-74
2021/11/03 06:41:05;;;;;;;32.47;14.45;;;;;;;;;;5009468;28;20145;-74
2021/11/03 06:43:32;;;;;;;79.90;19.83;;;;;;;;;;5000201;28;20030;-74
2021/11/03 06:45:58;;;;;;;70.25;18.00;;;;;;;;;;4998398;28;20069;-74
2021/11/03 06:48:24;;;;;;;89.35;17.63;;;;;;;;;;5009525;28;20526;-76
2021/11/03 06:50:51;;;;;;;76.60;18.95;;;;;;;;;;5009829;28;20045;-74
2021/11/03 06:53:19;;;;;;;79.70;18.15;;;;;;;;;;5006803;28;20478;-74
2021/11/03 06:55:46;;;;;;;50.25;15.30;;;;;;;;;;5011896;28;20030;-74
2021/11/03 06:58:12;;;;;;;47.72;14.02;;;;;;;;;;5008987;28;20027;-74
2021/11/03 07:00:41;;;;;;;38.63;12.85;;;;;;;;;;5011246;28;20033;-74
2021/11/03 07:03:07;;;;;;;53.88;15.55;;;;;;;;;;5005454;28;20021;-74
2021/11/03 07:05:33;;;;;;;67.68;15.82;;;;;;;;;;5010196;28;20028;-74
2021/11/03 07:08:00;;;;;;;25.23;13.25;;;;;;;;;;5006378;28;20029;-74
2021/11/03 07:10:31;;;;;;;27.58;12.93;;;;;;;;;;4996013;28;20037;-74
2021/11/03 07:12:56;;;;;;;36.40;13.85;;;;;;;;;;5011954;28;20037;-74
2021/11/03 07:15:23;;;;;;;32.10;14.45;;;;;;;;;;5009765;28;20045;-74
2021/11/03 07:17:50;;;;;;;28.00;14.13;;;;;;;;;;5000426;28;20080;-74
2021/11/03 07:20:16;;;;;;;26.42;13.27;;;;;;;;;;5008523;28;20029;-75
2021/11/03 07:22:42;;;;;;;32.42;14.48;;;;;;;;;;5009397;28;20026;-74
2021/11/03 07:25:09;;;;;;;68.95;17.38;;;;;;;;;;5009209;28;20045;-74
2021/11/03 07:27:35;;;;;;;28.45;12.98;;;;;;;;;;5004883;28;20892;-74
2021/11/03 07:30:01;;;;;;;20.63;13.13;;;;;;;;;;5002460;28;20030;-74
2021/11/03 07:32:27;;;;;;;26.00;13.93;;;;;;;;;;5008193;28;20034;-74
2021/11/03 07:34:53;;;;;;;21.17;12.52;;;;;;;;;;5009608;28;20116;-74
2021/11/03 07:37:19;;;;;;;21.75;13.60;;;;;;;;;;5003407;28;20559;-74
2021/11/03 07:39:45;;;;;;;23.50;13.38;;;;;;;;;;5006699;28;20034;-74
2021/11/03 07:42:11;;;;;;;24.17;13.68;;;;;;;;;;5000986;28;20031;-74
2021/11/03 07:44:37;;;;;;;25.48;14.50;;;;;;;;;;5008611;28;20029;-74
2021/11/03 07:47:03;;;;;;;27.33;15.55;;;;;;;;;;5003978;28;20034;-74
2021/11/03 07:49:29;;;;;;;29.30;15.80;;;;;;;;;;5000516;28;20391;-74
2021/11/03 07:51:56;;;;;;;30.42;13.10;;;;;;;;;;5010154;28;20049;-74
2021/11/03 07:54:22;;;;;;;21.88;13.15;;;;;;;;;;5010356;28;20038;-74
2021/11/03 07:56:48;;;;;;;23.55;13.00;;;;;;;;;;5007682;28;20399;-75
2021/11/03 07:59:15;;;;;;;19.52;11.90;;;;;;;;;;5011695;28;20017;-75
2021/11/03 08:01:44;;;;;;;20.95;12.77;;;;;;;;;;5006173;28;20038;-74
2021/11/03 08:04:10;;;;;;;22.38;14.13;;;;;;;;;;5005436;28;20605;-75
2021/11/03 08:06:37;;;;;;;23.42;13.82;;;;;;;;;;5007110;28;20041;-75
2021/11/03 08:09:05;;;;;;;23.25;14.05;;;;;;;;;;5007823;28;20072;-75
2021/11/03 08:11:47;;;;;;;27.63;14.60;;;;;;;;;;5008037;28;20510;-74
2021/11/03 08:14:13;;;;;;;22.85;14.70;;;;;;;;;;5009492;28;20379;-75
2021/11/03 08:16:46;;;;;;;20.13;12.93;;;;;;;;;;5003130;28;20033;-74
2021/11/03 08:19:12;;;;;;;17.48;12.18;;;;;;;;;;5011307;28;20147;-75
2021/11/03 08:21:38;;;;;;;16.45;10.80;;;;;;;;;;5007623;28;20110;-75
2021/11/03 08:24:04;;;;;;;9.13;7.57;;;;;;;;;;5003827;28;20507;-74
2021/11/03 08:26:30;;;;;;;7.28;5.70;;;;;;;;;;5005644;28;20149;-74
2021/11/03 08:28:56;;;;;;;7.20;6.15;;;;;;;;;;5006731;28;20100;-74
2021/11/03 08:31:22;;;;;;;7.20;5.47;;;;;;;;;;5001861;28;20494;-74
2021/11/03 08:33:49;;;;;;;10.25;6.70;;;;;;;;;;5000676;28;20175;-74
2021/11/03 08:36:16;;;;;;;9.35;5.80;;;;;;;;;;5007261;28;20026;-74
2021/11/03 08:38:42;;;;;;;8.38;6.30;;;;;;;;;;5009108;28;20026;-73
2021/11/03 08:41:08;;;;;;;10.60;7.13;;;;;;;;;;5004494;28;20034;-73
2021/11/03 08:43:36;;;;;;;11.02;6.88;;;;;;;;;;5003650;28;20050;-73
2021/11/03 08:46:08;;;;;;;9.70;7.18;;;;;;;;;;5007677;28;20698;-72
2021/11/03 08:48:34;;;;;;;11.63;7.20;;;;;;;;;;5008324;28;20045;-72
2021/11/03 08:51:00;;;;;;;10.82;7.22;;;;;;;;;;5008248;28;20933;-72
2021/11/03 08:53:26;;;;;;;11.27;7.43;;;;;;;;;;5008436;28;20109;-72
2021/11/03 08:55:53;;;;;;;10.50;7.10;;;;;;;;;;5009088;28;20034;-73
2021/11/03 08:58:21;;;;;;;11.13;7.32;;;;;;;;;;5007525;28;20029;-73
2021/11/03 09:00:50;;;;;;;9.65;6.55;;;;;;;;;;5009692;28;20026;-73
2021/11/03 09:03:16;;;;;;;10.23;7.22;;;;;;;;;;4997279;28;20486;-73
2021/11/03 09:05:42;;;;;;;8.23;6.88;;;;;;;;;;5007727;28;20021;-73
2021/11/03 09:08:09;;;;;;;9.48;6.80;;;;;;;;;;5008173;28;20022;-73
2021/11/03 09:10:39;;;;;;;9.43;6.72;;;;;;;;;;5008735;28;20061;-73
2021/11/03 09:13:05;;;;;;;11.63;7.68;;;;;;;;;;5007781;28;20026;-73
2021/11/03 09:15:31;;;;;;;11.95;8.10;;;;;;;;;;5008228;28;20061;-73
2021/11/03 09:17:57;;;;;;;9.15;6.93;;;;;;;;;;5004983;28;20030;-72
2021/11/03 09:20:25;;;;;;;12.48;7.97;;;;;;;;;;5009510;28;20030;-73
2021/11/03 09:22:51;;;;;;;10.38;6.80;;;;;;;;;;5007969;28;20048;-73
2021/11/03 09:25:18;;;;;;;9.40;6.75;;;;;;;;;;5005961;28;20528;-73
2021/11/03 09:27:44;;;;;;;9.48;6.95;;;;;;;;;;5009046;28;20079;-73
2021/11/03 09:30:11;;;;;;;9.18;6.50;;;;;;;;;;5007531;28;20164;-72
2021/11/03 09:32:40;;;;;;;9.88;6.72;;;;;;;;;;5008114;28;20026;-72
2021/11/03 09:35:06;;;;;;;10.23;6.72;;;;;;;;;;5006806;28;20025;-72
2021/11/03 09:37:32;;;;;;;8.85;6.65;;;;;;;;;;5008124;28;20626;-72
2021/11/03 09:39:59;;;;;;;10.13;7.68;;;;;;;;;;5009984;28;20095;-72
2021/11/03 09:42:26;;;;;;;11.45;7.80;;;;;;;;;;5007209;28;20041;-72
2021/11/03 09:44:55;;;;;;;14.00;8.45;;;;;;;;;;5005676;28;20032;-72
2021/11/03 09:47:24;;;;;;;13.20;9.10;;;;;;;;;;5008390;28;20777;-72
2021/11/03 09:49:58;;;;;;;14.23;8.98;;;;;;;;;;5009033;28;20022;-72
2021/11/03 09:52:27;;;;;;;12.82;8.73;;;;;;;;;;5007296;28;20056;-72
2021/11/03 09:54:55;;;;;;;12.35;8.75;;;;;;;;;;5009109;28;20108;-72
2021/11/03 09:57:45;;;;;;;13.52;9.32;;;;;;;;;;5006941;28;20041;-72
2021/11/03 10:00:22;;;;;;;15.52;8.35;;;;;;;;;;5007932;28;20559;-73
2021/11/03 10:02:51;;;;;;;11.60;8.40;;;;;;;;;;5011679;28;20078;-73
2021/11/03 10:05:42;;;;;;;16.27;10.57;;;;;;;;;;5009470;28;20073;-72
2021/11/03 10:08:13;;;;;;;14.38;10.00;;;;;;;;;;5010134;28;20471;-72
2021/11/03 10:10:49;;;;;;;12.00;8.52;;;;;;;;;;5013147;28;20525;-74
2021/11/03 10:13:15;;;;;;;14.60;8.95;;;;;;;;;;5010951;28;20113;-74
2021/11/03 10:15:52;;;;;;;13.68;9.02;;;;;;;;;;5009865;28;20140;-73
2021/11/03 10:18:19;;;;;;;13.73;10.25;;;;;;;;;;5011447;28;20065;-73
2021/11/03 10:20:59;;;;;;;12.13;9.00;;;;;;;;;;5012300;28;20033;-75
2021/11/03 10:23:26;;;;;;;12.98;9.93;;;;;;;;;;5013182;28;20033;-74
2021/11/03 10:25:57;;;;;;;12.90;10.40;;;;;;;;;;5011684;28;20030;-74
2021/11/03 10:28:29;;;;;;;17.20;9.07;;;;;;;;;;5010232;28;20022;-74
2021/11/03 10:30:55;;;;;;;11.80;8.00;;;;;;;;;;5010761;28;20021;-74
2021/11/03 10:33:29;;;;;;;11.23;8.90;;;;;;;;;;5011278;28;20033;-72
2021/11/03 10:36:15;;;;;;;11.07;8.20;;;;;;;;;;5004890;28;20041;-74
2021/11/03 10:39:02;;;;;;;12.95;8.43;;;;;;;;;;5012840;28;20034;-75
2021/11/03 10:41:29;;;;;;;13.82;8.48;;;;;;;;;;5011249;28;20037;-73
2021/11/03 10:44:04;;;;;;;10.55;7.30;;;;;;;;;;5009381;28;20040;-74
2021/11/03 10:46:31;;;;;;;9.77;7.40;;;;;;;;;;5011033;28;20050;-74
2021/11/03 10:49:21;;;;;;;10.43;6.95;;;;;;;;;;5006670;28;20026;-74
2021/11/03 10:51:47;;;;;;;10.35;7.28;;;;;;;;;;4998033;28;20475;-74
2021/11/03 10:54:19;;;;;;;11.68;7.90;;;;;;;;;;5007625;28;20041;-75
2021/11/03 10:56:55;;;;;;;12.25;7.35;;;;;;;;;;5004560;28;20025;-75
2021/11/03 10:59:21;;;;;;;9.55;7.38;;;;;;;;;;5021218;28;20058;-75
2021/11/03 11:01:48;;;;;;;11.45;7.65;;;;;;;;;;5009004;28;20033;-73
2021/11/03 11:04:18;;;;;;;10.15;7.00;;;;;;;;;;5013309;28;20026;-73
2021/11/03 11:06:49;;;;;;;9.75;6.55;;;;;;;;;;5011557;28;20030;-73
2021/11/03 11:09:36;;;;;;;10.43;7.25;;;;;;;;;;5012105;28;20125;-73
2021/11/03 11:12:11;;;;;;;11.10;7.10;;;;;;;;;;5011067;28;20032;-73
2021/11/03 11:14:37;;;;;;;12.00;6.70;;;;;;;;;;5008551;28;20380;-73
2021/11/03 11:17:08;;;;;;;9.10;6.57;;;;;;;;;;5010820;28;20030;-73
2021/11/03 11:19:38;;;;;;;11.43;8.02;;;;;;;;;;5014512;28;20026;-73
2021/11/03 11:22:19;;;;;;;9.15;6.68;;;;;;;;;;5012388;28;20072;-73
2021/11/03 11:24:51;;;;;;;11.20;6.55;;;;;;;;;;5010164;28;20054;-73
2021/11/03 11:27:23;;;;;;;11.63;5.68;;;;;;;;;;5011957;28;20029;-73
2021/11/03 11:29:57;;;;;;;10.10;6.65;;;;;;;;;;5012390;28;20048;-73
2021/11/03 11:32:41;;;;;;;9.43;6.43;;;;;;;;;;5011916;28;20029;-72
2021/11/03 11:35:16;;;;;;;11.15;6.50;;;;;;;;;;5012161;28;20033;-72
2021/11/03 11:38:01;;;;;;;8.93;6.30;;;;;;;;;;5011626;28;20109;-72
2021/11/03 11:40:45;;;;;;;8.48;5.85;;;;;;;;;;5011506;28;20026;-72
2021/11/03 11:43:18;;;;;;;9.30;5.25;;;;;;;;;;5009241;28;20045;-72
2021/11/03 11:45:45;;;;;;;7.03;4.95;;;;;;;;;;5010196;28;20026;-73
2021/11/03 11:48:19;;;;;;;8.05;5.00;;;;;;;;;;5011603;28;20513;-73
2021/11/03 11:50:48;;;;;;;10.55;5.35;;;;;;;;;;5011735;28;20022;-73
2021/11/03 11:53:21;;;;;;;7.75;4.55;;;;;;;;;;5010946;28;20522;-73
2021/11/03 11:56:09;;;;;;;5.55;2.97;;;;;;;;;;5011704;28;20386;-73
2021/11/03 11:58:35;;;;;;;5.95;2.83;;;;;;;;;;5008126;28;20026;-73
2021/11/03 12:01:10;;;;;;;5.97;2.97;;;;;;;;;;5007359;28;20029;-72
2021/11/03 12:03:36;;;;;;;4.82;2.92;;;;;;;;;;5007445;28;20152;-72
2021/11/03 12:06:05;;;;;;;4.47;3.03;;;;;;;;;;5009322;28;20087;-74
2021/11/03 12:08:46;;;;;;;4.93;3.13;;;;;;;;;;5009227;28;20512;-72
2021/11/03 12:11:14;;;;;;;4.47;2.45;;;;;;;;;;5008403;28;20546;-73
2021/11/03 12:13:40;;;;;;;6.63;3.50;;;;;;;;;;5009630;28;20390;-73
2021/11/03 12:16:19;;;;;;;6.78;3.08;;;;;;;;;;5025479;28;20034;-72
2021/11/03 12:18:47;;;;;;;5.32;2.67;;;;;;;;;;5008529;28;20026;-72
2021/11/03 12:21:16;;;;;;;4.18;3.10;;;;;;;;;;5010966;28;20026;-72
2021/11/03 12:23:45;;;;;;;4.10;2.72;;;;;;;;;;5009214;28;20022;-72
2021/11/03 12:26:26;;;;;;;5.50;2.22;;;;;;;;;;5008708;28;20030;-72
2021/11/03 12:28:57;;;;;;;3.95;2.00;;;;;;;;;;5008420;28;20050;-72
2021/11/03 12:31:25;;;;;;;3.05;1.35;;;;;;;;;;5002016;28;20033;-72
2021/11/03 12:34:03;;;;;;;3.58;1.02;;;;;;;;;;5008700;28;20462;-72
2021/11/03 12:36:29;;;;;;;2.60;1.10;;;;;;;;;;5007949;28;20057;-73
2021/11/03 12:38:59;;;;;;;1.15;0.50;;;;;;;;;;5009719;28;20041;-73
2021/11/03 12:41:29;;;;;;;1.73;0.73;;;;;;;;;;5009013;28;20435;-74
2021/11/03 12:43:56;;;;;;;;;;;;;;;;;;5011753;28;20597;-75
2021/11/03 12:46:22;;;;;;;1.55;0.50;;;;;;;;;;5011026;28;20254;-73
2021/11/03 12:48:58;;;;;;;1.42;0.57;;;;;;;;;;5011058;28;20033;-73
2021/11/03 12:51:24;;;;;;;1.58;0.73;;;;;;;;;;5009425;28;20072;-73
2021/11/03 12:53:52;;;;;;;1.92;0.68;;;;;;;;;;5010625;28;20038;-73
2021/11/03 12:56:22;;;;;;;1.90;0.50;;;;;;;;;;5010319;28;20018;-73
2021/11/03 12:58:52;;;;;;;1.35;0.50;;;;;;;;;;5010661;28;20026;-74
2021/11/03 13:01:24;;;;;;;4.00;1.10;;;;;;;;;;5010289;28;20061;-74
2021/11/03 13:03:57;;;;;;;2.92;1.15;;;;;;;;;;5007042;28;20030;-74
2021/11/03 13:06:34;;;;;;;3.28;1.20;;;;;;;;;;5008233;28;20033;-73
2021/11/03 13:09:01;;;;;;;1.77;0.57;;;;;;;;;;5004203;28;20021;-75
2021/11/03 13:11:38;;;;;;;2.85;0.90;;;;;;;;;;5010702;28;20021;-73
2021/11/03 13:14:06;;;;;;;1.58;0.50;;;;;;;;;;5010249;28;20506;-73
2021/11/03 13:16:34;;;;;;;2.47;0.60;;;;;;;;;;5009443;28;20612;-73
2021/11/03 13:19:01;;;;;;;2.28;0.50;;;;;;;;;;5008358;28;20762;-73
2021/11/03 13:21:34;;;;;;;2.95;0.80;;;;;;;;;;5008418;28;20038;-73
2021/11/03 13:24:03;;;;;;;1.52;0.80;;;;;;;;;;5005942;28;20038;-72
2021/11/03 13:26:34;;;;;;;1.80;0.60;;;;;;;;;;5008935;28;20104;-73
2021/11/03 13:29:02;;;;;;;1.75;0.73;;;;;;;;;;5010042;28;20030;-73
2021/11/03 13:31:31;;;;;;;12.77;7.82;;;;;;;;;;5010112;28;20585;-72
2021/11/03 13:34:05;;;;;;;11.15;7.53;;;;;;;;;;5010445;28;20505;-73
2021/11/03 13:36:31;;;;;;;12.43;7.57;;;;;;;;;;5009251;28;20065;-73
2021/11/03 13:38:57;;;;;;;12.00;8.38;;;;;;;;;;5009441;28;20034;-73
2021/11/03 13:41:25;;;;;;;14.43;7.90;;;;;;;;;;5007356;28;20033;-73
2021/11/03 13:44:11;;;;;;;12.95;8.90;;;;;;;;;;5010119;28;20450;-73
2021/11/03 13:46:37;;;;;;;17.05;8.05;;;;;;;;;;5007949;28;20108;-73
2021/11/03 13:49:11;;;;;;;11.82;8.45;;;;;;;;;;5006328;28;20021;-73
2021/11/03 13:51:45;;;;;;;13.50;8.63;;;;;;;;;;5006468;28;20025;-74
2021/11/03 13:54:19;;;;;;;13.70;8.93;;;;;;;;;;5005812;28;20083;-74
2021/11/03 13:56:48;;;;;;;15.32;9.07;;;;;;;;;;5009372;28;20356;-73
2021/11/03 13:59:18;;;;;;;14.85;8.82;;;;;;;;;;5007480;28;20484;-73
2021/11/03 14:01:44;;;;;;;;;;;;;;;;;;5007762;28;20025;-73
2021/11/03 14:04:13;;;;;;;14.15;9.18;;;;;;;;;;5009453;28;19910;-73
2021/11/03 14:06:48;;;;;;;14.15;9.10;;;;;;;;;;5007702;28;20045;-72
2021/11/03 14:09:19;;;;;;;14.57;9.85;;;;;;;;;;5009116;28;20360;-73
2021/11/03 14:11:46;;;;;;;16.05;9.10;;;;;;;;;;5008925;28;20084;-72
2021/11/03 14:14:13;;;;;;;9.55;5.70;;;;;;;;;;5008658;28;20034;-73
2021/11/03 14:16:51;;;;;;;10.10;6.50;;;;;;;;;;5009425;28;20061;-75
2021/11/03 14:19:22;;;;;;;9.63;6.20;;;;;;;;;;5008178;28;20089;-73
2021/11/03 14:21:48;;;;;;;7.78;5.00;;;;;;;;;;5007734;28;20030;-74
2021/11/03 14:24:15;;;;;;;8.07;4.05;;;;;;;;;;5007699;28;20081;-75
2021/11/03 14:26:41;;;;;;;4.68;2.88;;;;;;;;;;5009693;28;20482;-73
2021/11/03 14:29:07;;;;;;;4.18;2.22;;;;;;;;;;5008879;28;20022;-74
2021/11/03 14:31:43;;;;;;;1.95;1.08;;;;;;;;;;5009586;28;20022;-74
2021/11/03 14:34:17;;;;;;;3.38;1.17;;;;;;;;;;5007746;28;20028;-75